createdAt,value
2018-12-01T00:00:27.653Z,90.00
2018-12-01T00:02:56.621Z,89.50
2018-12-01T00:05:25.629Z,89.30
2018-12-01T00:07:53.903Z,89.80
2018-12-01T00:12:50.542Z,89.30
2018-12-01T00:17:47.851Z,90.00
2018-12-01T00:20:16.923Z,90.10
2018-12-01T00:22:45.591Z,89.80
2018-12-01T00:25:13.312Z,90.10
2018-12-01T00:27:41.919Z,90.10
2018-12-01T00:30:15.703Z,89.40
2018-12-01T00:32:45.497Z,90.20
2018-12-01T00:35:13.346Z,90.30
2018-12-01T00:37:41.986Z,90.20
2018-12-01T00:40:11.158Z,90.50
2018-12-01T00:42:39.679Z,90.50
2018-12-01T00:45:09.231Z,90.70
2018-12-01T00:51:34.985Z,90.80
2018-12-01T00:54:04.762Z,90.70
2018-12-01T00:56:33.316Z,91.10
2018-12-01T00:59:02.377Z,91.10
2018-12-01T01:01:30.862Z,90.80
2018-12-01T01:03:58.634Z,90.90
2018-12-01T01:06:26.997Z,91.00
2018-12-01T01:08:55.684Z,90.80
2018-12-01T01:11:24.257Z,91.00
2018-12-01T01:13:52.875Z,90.90
2018-12-01T01:16:20.707Z,91.10
2018-12-01T01:21:16.713Z,90.90
2018-12-01T01:23:44.680Z,91.20
2018-12-01T01:26:13.131Z,91.10
2018-12-01T01:28:41.004Z,91.30
2018-12-01T01:31:09.567Z,91.40
2018-12-01T01:33:37.478Z,91.50
2018-12-01T01:36:06.230Z,91.50
2018-12-01T01:41:08.077Z,91.60
2018-12-01T01:43:37.149Z,91.30
2018-12-01T01:46:05.011Z,91.40
2018-12-01T01:51:01.702Z,91.20
2018-12-01T01:53:29.628Z,91.10
2018-12-01T01:55:59.027Z,91.30
2018-12-01T01:58:27.323Z,91.20
2018-12-01T02:00:56.363Z,91.40
2018-12-01T02:03:24.592Z,90.90
2018-12-01T02:05:52.437Z,90.80
2018-12-01T02:08:21.107Z,90.60
2018-12-01T02:10:50.321Z,90.70
2018-12-01T02:13:18.399Z,90.20
2018-12-01T02:15:46.145Z,89.60
2018-12-01T02:18:14.055Z,89.10
2018-12-01T02:20:41.899Z,89.20
2018-12-01T02:23:10.039Z,90.00
2018-12-01T02:25:37.877Z,90.10
2018-12-01T02:28:06.907Z,90.30
2018-12-01T02:30:35.897Z,90.30
2018-12-01T02:38:03.058Z,90.20
2018-12-01T02:40:32.095Z,90.20
2018-12-01T02:42:59.918Z,90.20
2018-12-01T02:45:39.588Z,90.30
2018-12-01T02:48:07.951Z,90.30
2018-12-01T02:50:37.982Z,90.20
2018-12-01T02:53:06.457Z,90.10
2018-12-01T02:55:34.336Z,90.00
2018-12-01T02:58:02.258Z,89.70
2018-12-01T03:00:30.284Z,89.20
2018-12-01T03:02:59.430Z,89.40
2018-12-01T03:05:27.154Z,88.70
2018-12-01T03:07:54.894Z,88.80
2018-12-01T03:10:22.747Z,88.10
2018-12-01T03:12:51.920Z,87.10
2018-12-01T03:15:20.826Z,87.10
2018-12-01T03:17:49.769Z,87.70
2018-12-01T03:22:48.215Z,87.80
2018-12-01T03:25:17.495Z,87.30
2018-12-01T03:27:46.208Z,87.10
2018-12-01T03:32:46.777Z,86.40
2018-12-01T03:37:45.571Z,85.60
2018-12-01T03:40:13.835Z,85.90
2018-12-01T03:42:41.722Z,85.30
2018-12-01T03:45:12.723Z,86.30
2018-12-01T03:47:41.202Z,87.00
2018-12-01T03:50:11.367Z,86.10
2018-12-01T03:55:45.807Z,85.50
2018-12-01T03:58:14.292Z,85.60
2018-12-01T04:03:09.678Z,85.40
2018-12-01T04:05:37.767Z,85.60
2018-12-01T04:08:08.203Z,85.40
2018-12-01T04:13:04.209Z,86.00
2018-12-01T04:18:01.383Z,86.90
2018-12-01T04:20:29.111Z,85.80
2018-12-01T04:25:26.588Z,85.40
2018-12-01T04:27:54.596Z,84.90
2018-12-01T04:32:52.919Z,85.30
2018-12-01T04:40:19.552Z,85.60
2018-12-01T04:42:48.801Z,85.60
2018-12-01T04:45:17.566Z,85.60
2018-12-01T04:47:45.647Z,86.00
2018-12-01T04:50:15.562Z,86.50
2018-12-01T04:52:44.786Z,85.80
2018-12-01T04:57:41.337Z,84.30
2018-12-01T05:00:14.594Z,84.00
2018-12-01T05:02:43.400Z,84.50
2018-12-01T05:05:12.513Z,84.00
2018-12-01T05:07:40.863Z,84.80
2018-12-01T05:10:09.902Z,84.80
2018-12-01T05:12:38.308Z,84.60
2018-12-01T05:15:08.975Z,84.50
2018-12-01T05:17:36.601Z,85.00
2018-12-01T05:21:30.830Z,86.00
2018-12-01T05:23:58.583Z,85.30
2018-12-01T05:28:53.886Z,84.40
2018-12-01T05:36:10.820Z,84.10
2018-12-01T05:38:38.627Z,84.60
2018-12-01T05:41:06.779Z,84.90
2018-12-01T05:43:35.603Z,84.50
2018-12-01T05:46:03.378Z,84.60
2018-12-01T05:48:31.142Z,84.70
2018-12-01T05:50:58.819Z,84.70
2018-12-01T05:53:26.554Z,84.10
2018-12-01T05:55:54.250Z,84.20
2018-12-01T05:58:23.983Z,84.10
2018-12-01T06:03:20.404Z,83.70
2018-12-01T06:05:47.993Z,84.10
2018-12-01T06:08:16.353Z,84.30
2018-12-01T06:13:14.027Z,84.60
2018-12-01T06:18:10.901Z,84.70
2018-12-01T06:20:38.761Z,85.30
2018-12-01T06:23:06.810Z,85.90
2018-12-01T06:25:35.210Z,86.50
2018-12-01T06:28:03.588Z,86.60
2018-12-01T06:30:31.494Z,86.60
2018-12-01T06:32:59.370Z,87.10
2018-12-01T06:35:26.918Z,87.80
2018-12-01T06:37:54.439Z,88.70
2018-12-01T06:40:23.813Z,88.00
2018-12-01T06:42:51.469Z,88.20
2018-12-01T06:45:19.240Z,87.90
2018-12-01T06:47:47.545Z,87.50
2018-12-01T06:52:45.268Z,86.70
2018-12-01T06:55:14.240Z,86.60
2018-12-01T06:57:43.997Z,86.70
2018-12-01T07:05:10.711Z,85.40
2018-12-01T07:07:38.271Z,85.30
2018-12-01T07:10:09.021Z,85.20
2018-12-01T07:12:36.553Z,84.90
2018-12-01T07:15:05.759Z,84.50
2018-12-01T07:17:34.149Z,84.20
2018-12-01T07:20:02.905Z,84.10
2018-12-01T07:22:31.586Z,84.00
2018-12-01T07:24:59.292Z,83.80
2018-12-01T07:27:26.859Z,84.00
2018-12-01T07:29:58.059Z,84.00
2018-12-01T07:32:22.992Z,84.40
2018-12-01T07:37:19.842Z,84.70
2018-12-01T07:42:18.090Z,85.30
2018-12-01T07:44:47.072Z,85.90
2018-12-01T07:47:14.569Z,86.50
2018-12-01T07:49:42.407Z,85.90
2018-12-01T07:54:39.142Z,85.70
2018-12-01T07:57:06.724Z,86.80
2018-12-01T07:59:36.034Z,86.30
2018-12-01T08:02:07.478Z,86.90
2018-12-01T08:04:35.888Z,86.10
2018-12-01T08:07:05.795Z,85.70
2018-12-01T08:12:04.068Z,86.50
2018-12-01T08:14:32.457Z,86.90
2018-12-01T08:17:00.037Z,87.00
2018-12-01T08:19:27.600Z,86.90
2018-12-01T08:21:55.063Z,86.60
2018-12-01T08:24:22.614Z,86.70
2018-12-01T08:26:50.151Z,86.40
2018-12-01T08:29:18.516Z,85.90
2018-12-01T08:31:46.171Z,86.00
2018-12-01T08:34:13.715Z,86.40
2018-12-01T08:36:41.265Z,86.50
2018-12-01T08:39:09.035Z,86.40
2018-12-01T08:41:37.404Z,86.30
2018-12-01T08:44:05.034Z,86.20
2018-12-01T08:46:32.604Z,86.40
2018-12-01T08:51:27.642Z,86.70
2018-12-01T08:53:55.187Z,86.60
2018-12-01T08:58:50.219Z,86.60
2018-12-01T09:03:46.136Z,85.30
2018-12-01T09:11:09.322Z,84.70
2018-12-01T09:13:36.926Z,84.50
2018-12-01T09:16:05.838Z,84.30
2018-12-01T09:18:34.196Z,84.30
2018-12-01T09:23:29.215Z,84.40
2018-12-01T09:28:24.401Z,85.00
2018-12-01T09:35:50.227Z,85.80
2018-12-01T09:38:18.017Z,85.10
2018-12-01T09:40:45.559Z,86.00
2018-12-01T09:43:13.148Z,85.80
2018-12-01T09:45:40.964Z,86.20
2018-12-01T09:48:08.610Z,85.70
2018-12-01T09:53:04.062Z,86.10
2018-12-01T09:57:59.588Z,85.20
2018-12-01T10:00:29.364Z,84.50
2018-12-01T10:02:57.819Z,84.90
2018-12-01T10:05:25.651Z,85.10
2018-12-01T10:07:53.220Z,85.30
2018-12-01T10:10:21.819Z,85.30
2018-12-01T10:12:51.704Z,85.00
2018-12-01T10:15:20.501Z,85.00
2018-12-01T10:17:47.981Z,84.90
2018-12-01T10:20:17.002Z,85.20
2018-12-01T10:22:45.933Z,85.10
2018-12-01T10:25:14.750Z,85.00
2018-12-01T10:27:42.277Z,86.00
2018-12-01T10:30:14.195Z,85.80
2018-12-01T10:32:41.818Z,84.10
2018-12-01T10:35:11.563Z,84.80
2018-12-01T10:37:39.678Z,84.80
2018-12-01T10:40:09.002Z,84.80
2018-12-01T10:42:36.758Z,84.70
2018-12-01T10:45:15.740Z,84.20
2018-12-01T10:47:43.922Z,85.10
2018-12-01T10:50:13.692Z,84.40
2018-12-01T10:55:15.568Z,84.80
2018-12-01T10:57:43.116Z,84.20
2018-12-01T11:00:17.245Z,84.80
2018-12-01T11:02:55.473Z,84.30
2018-12-01T11:05:17.971Z,84.50
2018-12-01T11:07:45.513Z,84.80
2018-12-01T11:10:13.063Z,83.50
2018-12-01T11:12:40.609Z,83.50
2018-12-01T11:15:08.972Z,83.00
2018-12-01T11:20:06.939Z,82.50
2018-12-01T11:22:34.584Z,81.70
2018-12-01T11:25:02.219Z,80.30
2018-12-01T11:27:29.903Z,79.30
2018-12-01T11:29:57.473Z,79.80
2018-12-01T11:32:25.676Z,80.10
2018-12-01T11:34:53.288Z,81.20
2018-12-01T11:37:20.818Z,81.10
2018-12-01T11:39:48.872Z,81.00
2018-12-01T11:42:16.535Z,82.60
2018-12-01T11:45:47.875Z,82.10
2018-12-01T11:48:15.515Z,83.30
2018-12-01T11:50:42.995Z,83.40
2018-12-01T11:53:10.588Z,84.50
2018-12-01T11:55:38.168Z,83.50
2018-12-01T11:58:05.759Z,83.60
2018-12-01T12:00:33.375Z,83.50
2018-12-01T12:03:02.634Z,81.40
2018-12-01T12:05:30.217Z,81.40
2018-12-01T12:08:19.817Z,81.40
2018-12-01T12:10:47.396Z,80.20
2018-12-01T12:13:15.133Z,79.20
2018-12-01T12:15:42.930Z,77.50
2018-12-01T12:18:10.800Z,77.20
2018-12-01T12:20:39.243Z,78.60
2018-12-01T12:23:07.199Z,79.90
2018-12-01T12:25:34.921Z,79.70
2018-12-01T12:28:02.603Z,81.60
2018-12-01T12:30:30.194Z,81.50
2018-12-01T12:32:57.784Z,81.40
2018-12-01T12:35:25.332Z,81.90
2018-12-01T12:37:52.854Z,81.00
2018-12-01T12:40:21.859Z,81.60
2018-12-01T12:45:17.939Z,80.50
2018-12-01T12:47:45.633Z,80.90
2018-12-01T12:50:15.220Z,81.00
2018-12-01T12:52:43.606Z,79.30
2018-12-01T12:55:12.883Z,77.70
2018-12-01T12:57:40.410Z,78.10
2018-12-01T13:00:09.836Z,77.70
2018-12-01T13:02:37.438Z,78.20
2018-12-01T13:05:07.953Z,78.10
2018-12-01T13:07:35.462Z,77.80
2018-12-01T13:10:03.468Z,77.70
2018-12-01T13:12:31.011Z,78.70
2018-12-01T13:14:58.563Z,79.60
2018-12-01T13:17:26.055Z,80.50
2018-12-01T13:19:53.629Z,81.10
2018-12-01T13:22:21.118Z,80.90
2018-12-01T13:24:48.735Z,78.60
2018-12-01T13:27:16.509Z,77.10
2018-12-01T13:29:45.075Z,74.20
2018-12-01T13:32:12.631Z,71.10
2018-12-01T13:34:40.320Z,69.20
2018-12-01T13:39:36.173Z,71.40
2018-12-01T13:44:31.533Z,72.50
2018-12-01T13:46:59.062Z,73.80
2018-12-01T13:49:26.692Z,75.00
2018-12-01T13:52:00.647Z,75.60
2018-12-01T13:54:32.561Z,76.60
2018-12-01T13:57:01.279Z,77.40
2018-12-01T13:59:30.882Z,77.20
2018-12-01T14:01:59.136Z,77.40
2018-12-01T14:06:54.830Z,77.40
2018-12-01T14:09:23.351Z,77.40
2018-12-01T14:11:51.199Z,79.10
2018-12-01T14:14:19.468Z,79.00
2018-12-01T14:16:47.220Z,79.30
2018-12-01T14:19:15.111Z,79.60
2018-12-01T14:21:43.072Z,80.00
2018-12-01T14:24:11.104Z,80.00
2018-12-01T14:26:39.063Z,80.00
2018-12-01T14:29:07.323Z,80.60
2018-12-01T14:31:35.433Z,80.70
2018-12-01T14:34:03.408Z,81.00
2018-12-01T14:36:31.309Z,81.10
2018-12-01T14:38:59.076Z,81.40
2018-12-01T14:41:27.843Z,81.40
2018-12-01T14:43:56.207Z,81.40
2018-12-01T14:46:24.278Z,81.40
2018-12-01T14:48:52.019Z,81.30
2018-12-01T14:51:20.752Z,81.40
2018-12-01T14:53:50.318Z,81.30
2018-12-01T14:56:18.143Z,81.30
2018-12-01T14:58:45.868Z,81.30
2018-12-01T15:01:14.679Z,81.30
2018-12-01T15:03:43.586Z,81.30
2018-12-01T15:06:11.999Z,81.30
2018-12-01T15:08:40.560Z,80.60
2018-12-01T15:11:08.184Z,80.50
2018-12-01T15:13:35.886Z,80.70
2018-12-01T15:18:31.030Z,80.80
2018-12-01T15:20:59.830Z,80.60
2018-12-01T15:23:27.486Z,80.80
2018-12-01T15:25:55.160Z,81.00
2018-12-01T15:28:23.096Z,80.80
2018-12-01T15:30:50.759Z,81.30
2018-12-01T15:33:18.510Z,81.30
2018-12-01T15:35:46.563Z,81.00
2018-12-01T15:38:14.460Z,81.50
2018-12-01T15:40:47.380Z,80.10
2018-12-01T15:43:15.303Z,80.10
2018-12-01T15:48:10.600Z,80.00
2018-12-01T15:50:39.332Z,79.90
2018-12-01T15:53:10.272Z,79.50
2018-12-01T15:55:37.910Z,80.00
2018-12-01T15:58:06.002Z,80.20
2018-12-01T16:00:33.811Z,79.80
2018-12-01T16:03:01.401Z,79.50
2018-12-01T16:05:29.032Z,79.50
2018-12-01T16:07:57.639Z,79.60
2018-12-01T16:10:25.425Z,79.50
2018-12-01T16:12:58.671Z,79.20
2018-12-01T16:15:32.590Z,79.40
2018-12-01T16:18:00.220Z,79.90
2018-12-01T16:20:28.665Z,79.80
2018-12-01T16:22:58.633Z,79.60
2018-12-01T16:25:26.819Z,79.80
2018-12-01T16:27:54.588Z,80.10
2018-12-01T16:30:25.670Z,80.20
2018-12-01T16:32:54.820Z,80.70
2018-12-01T16:37:50.580Z,81.10
2018-12-01T16:42:49.542Z,81.10
2018-12-01T16:45:17.251Z,81.10
2018-12-01T16:47:44.972Z,81.60
2018-12-01T16:55:11.108Z,82.10
2018-12-01T16:57:38.741Z,81.80
2018-12-01T17:00:12.899Z,82.30
2018-12-01T17:05:09.455Z,82.80
2018-12-01T17:07:37.143Z,83.10
2018-12-01T17:10:09.311Z,82.60
2018-12-01T17:12:37.254Z,82.60
2018-12-01T17:15:07.589Z,82.80
2018-12-01T17:17:35.377Z,83.10
2018-12-01T17:20:03.585Z,82.90
2018-12-01T17:22:32.440Z,83.40
2018-12-01T17:25:01.121Z,83.80
2018-12-01T17:27:29.621Z,84.10
2018-12-01T17:37:20.084Z,84.00
2018-12-01T17:39:47.855Z,83.50
2018-12-01T17:42:15.480Z,83.10
2018-12-01T17:44:44.518Z,83.30
2018-12-01T17:47:12.151Z,83.10
2018-12-01T17:49:39.742Z,82.50
2018-12-01T17:52:07.410Z,82.40
2018-12-01T17:54:35.152Z,83.10
2018-12-01T17:57:02.828Z,83.30
2018-12-01T17:59:30.477Z,83.30
2018-12-01T18:01:58.173Z,83.50
2018-12-01T18:06:53.260Z,83.70
2018-12-01T18:09:21.560Z,84.20
2018-12-01T18:11:49.223Z,84.60
2018-12-01T18:14:16.847Z,84.80
2018-12-01T18:16:44.559Z,84.50
2018-12-01T18:19:12.073Z,84.90
2018-12-01T18:21:39.733Z,84.70
2018-12-01T18:24:07.965Z,84.70
2018-12-01T18:26:35.687Z,85.10
2018-12-01T18:29:03.453Z,84.80
2018-12-01T18:31:31.032Z,84.70
2018-12-01T18:34:10.078Z,85.00
2018-12-01T18:36:37.736Z,84.90
2018-12-01T18:39:09.235Z,85.00
2018-12-01T18:41:36.840Z,84.90
2018-12-01T18:46:32.174Z,84.50
2018-12-01T18:48:59.742Z,84.60
2018-12-01T18:51:27.417Z,84.60
2018-12-01T18:53:55.510Z,84.70
2018-12-01T18:58:51.286Z,84.50
2018-12-01T19:01:18.955Z,84.40
2018-12-01T19:03:47.508Z,83.10
2018-12-01T19:06:15.275Z,84.20
2018-12-01T19:08:42.887Z,84.30
2018-12-01T19:11:10.523Z,84.00
2018-12-01T19:13:38.802Z,84.30
2018-12-01T19:16:06.847Z,84.50
2018-12-01T19:18:35.038Z,84.40
2018-12-01T19:23:30.093Z,84.10
2018-12-01T19:25:57.753Z,83.60
2018-12-01T19:28:25.401Z,83.40
2018-12-01T19:30:53.361Z,83.50
2018-12-01T19:33:23.140Z,83.40
2018-12-01T19:35:52.015Z,83.40
2018-12-01T19:38:24.337Z,83.50
2018-12-01T19:40:51.994Z,83.30
2018-12-01T19:43:20.323Z,82.80
2018-12-01T19:48:16.064Z,82.90
2018-12-01T19:50:43.752Z,83.20
2018-12-01T19:53:12.733Z,83.30
2018-12-01T19:55:40.584Z,83.40
2018-12-01T19:58:13.707Z,83.20
2018-12-01T20:00:42.630Z,83.20
2018-12-01T20:03:14.533Z,83.30
2018-12-01T20:05:42.121Z,83.00
2018-12-01T20:08:11.021Z,82.90
2018-12-01T20:10:44.370Z,83.30
2018-12-01T20:13:25.531Z,83.30
2018-12-01T20:15:57.683Z,83.50
2018-12-01T20:18:26.628Z,83.20
2018-12-01T20:20:54.371Z,83.00
2018-12-01T20:23:21.961Z,83.20
2018-12-01T20:25:50.638Z,83.10
2018-12-01T20:28:18.174Z,83.00
2018-12-01T20:30:46.914Z,82.60
2018-12-01T20:33:14.892Z,83.10
2018-12-01T20:35:52.410Z,82.80
2018-12-01T20:39:25.221Z,82.70
2018-12-01T20:44:21.661Z,82.70
2018-12-01T20:46:49.861Z,82.60
2018-12-01T20:49:20.283Z,82.30
2018-12-01T20:51:48.671Z,82.50
2018-12-01T20:54:27.926Z,83.10
2018-12-01T20:57:00.613Z,82.80
2018-12-01T20:59:28.231Z,82.70
2018-12-01T21:01:56.564Z,82.70
2018-12-01T21:04:24.125Z,82.80
2018-12-01T21:06:51.686Z,83.30
2018-12-01T21:09:19.256Z,83.30
2018-12-01T21:11:47.377Z,83.40
2018-12-01T21:14:16.180Z,83.50
2018-12-01T21:16:45.761Z,83.10
2018-12-01T21:19:13.508Z,83.00
2018-12-01T21:21:41.333Z,83.10
2018-12-01T21:24:08.910Z,83.10
2018-12-01T21:26:37.074Z,83.00
2018-12-01T21:29:06.038Z,83.30
2018-12-01T21:31:33.994Z,82.70
2018-12-01T21:34:02.110Z,82.60
2018-12-01T21:36:31.321Z,82.70
2018-12-01T21:38:58.936Z,82.80
2018-12-01T21:41:27.082Z,82.80
2018-12-01T21:43:54.741Z,82.90
2018-12-01T21:46:22.391Z,83.00
2018-12-01T21:48:52.431Z,82.80
2018-12-01T21:53:47.566Z,82.90
2018-12-01T21:56:15.850Z,82.60
2018-12-01T21:58:44.030Z,81.50
2018-12-01T22:01:11.680Z,81.90
2018-12-01T22:03:39.860Z,81.60
2018-12-01T22:06:08.430Z,81.60
2018-12-01T22:08:36.997Z,81.90
2018-12-01T22:11:05.308Z,81.90
2018-12-01T22:13:32.936Z,82.40
2018-12-01T22:16:00.539Z,81.40
2018-12-01T22:18:28.104Z,81.80
2018-12-01T22:23:23.178Z,81.50
2018-12-01T22:25:50.920Z,81.20
2018-12-01T22:28:18.543Z,81.00
2018-12-01T22:30:48.906Z,81.30
2018-12-01T22:35:46.495Z,80.90
2018-12-01T22:38:14.076Z,80.90
2018-12-01T22:40:42.527Z,81.50
2018-12-01T22:43:10.261Z,81.50
2018-12-01T22:45:38.512Z,80.90
2018-12-01T22:48:12.611Z,81.00
2018-12-01T22:50:42.016Z,80.80
2018-12-01T22:53:09.699Z,81.10
2018-12-01T22:55:38.440Z,81.40
2018-12-01T22:58:08.459Z,81.30
2018-12-01T23:00:40.359Z,81.40
2018-12-01T23:03:08.649Z,81.50
2018-12-01T23:05:36.320Z,81.30
2018-12-01T23:08:04.809Z,81.80
2018-12-01T23:10:32.468Z,81.30
2018-12-01T23:13:00.064Z,81.40
2018-12-01T23:15:32.427Z,81.60
2018-12-01T23:20:22.953Z,82.00
2018-12-01T23:22:51.378Z,81.80
2018-12-01T23:30:15.860Z,81.60
2018-12-01T23:32:44.835Z,81.60
2018-12-01T23:35:12.413Z,80.80
2018-12-01T23:37:40.062Z,80.80
2018-12-01T23:40:10.064Z,81.30
2018-12-01T23:42:37.694Z,81.10
2018-12-01T23:45:09.355Z,81.10
2018-12-01T23:47:36.991Z,80.90
2018-12-01T23:50:09.956Z,80.90
2018-12-01T23:52:37.522Z,81.00
2018-12-01T23:55:07.181Z,81.60
2018-12-01T23:57:35.691Z,81.50
